createdAt,value
2016-12-16T00:00:09.708Z,976.66
2016-12-16T00:01:09.703Z,976.64
2016-12-16T00:02:09.699Z,976.67
2016-12-16T00:03:09.695Z,976.66
2016-12-16T00:04:09.687Z,976.69
2016-12-16T00:05:09.687Z,976.73
2016-12-16T00:06:09.680Z,976.7
2016-12-16T00:07:09.671Z,976.72
2016-12-16T00:08:09.671Z,976.71
2016-12-16T00:09:09.667Z,976.69
2016-12-16T00:10:09.663Z,976.69
2016-12-16T00:11:09.659Z,976.68
2016-12-16T00:12:09.656Z,976.72
2016-12-16T00:13:09.651Z,976.72
2016-12-16T00:14:09.648Z,976.74
2016-12-16T00:15:09.644Z,976.72
2016-12-16T00:16:09.640Z,976.73
2016-12-16T00:17:09.636Z,976.72
2016-12-16T00:18:09.632Z,976.72
2016-12-16T00:19:09.624Z,976.73
2016-12-16T00:20:09.620Z,976.72
2016-12-16T00:21:09.616Z,976.68
2016-12-16T00:22:09.616Z,976.72
2016-12-16T00:23:09.612Z,976.69
2016-12-16T00:24:09.608Z,976.72
2016-12-16T00:25:09.600Z,976.75
2016-12-16T00:26:09.596Z,976.77
2016-12-16T00:27:09.596Z,976.74
2016-12-16T00:28:09.592Z,976.72
2016-12-16T00:29:09.588Z,976.72
2016-12-16T00:30:09.585Z,976.73
2016-12-16T00:31:09.580Z,976.73
2016-12-16T00:32:09.573Z,976.73
2016-12-16T00:33:09.569Z,976.75
2016-12-16T00:34:09.565Z,976.73
2016-12-16T00:35:09.560Z,976.75
2016-12-16T00:36:09.557Z,976.74
2016-12-16T00:37:09.553Z,976.71
2016-12-16T00:38:09.549Z,976.72
2016-12-16T00:39:09.541Z,976.72
2016-12-16T00:40:09.537Z,976.75
2016-12-16T00:41:09.533Z,976.74
2016-12-16T00:42:09.529Z,976.73
2016-12-16T00:43:09.525Z,976.77
2016-12-16T00:44:09.525Z,976.74
2016-12-16T00:45:09.521Z,976.74
2016-12-16T00:46:09.517Z,976.75
2016-12-16T00:47:09.509Z,976.75
2016-12-16T00:48:09.505Z,976.77
2016-12-16T00:49:09.501Z,976.8
2016-12-16T00:50:09.498Z,976.79
2016-12-16T00:51:09.496Z,976.83
2016-12-16T00:52:09.489Z,976.78
2016-12-16T00:53:09.485Z,976.75
2016-12-16T00:54:09.482Z,976.76
2016-12-16T00:55:09.478Z,976.77
2016-12-16T00:56:09.474Z,976.83
2016-12-16T00:57:09.469Z,976.8
2016-12-16T00:58:09.466Z,976.79
2016-12-16T00:59:09.462Z,976.79
2016-12-16T01:00:09.458Z,976.79
2016-12-16T01:01:09.454Z,976.82
2016-12-16T01:02:09.450Z,976.78
2016-12-16T01:03:09.442Z,976.79
2016-12-16T01:04:09.438Z,976.82
2016-12-16T01:05:09.434Z,976.84
2016-12-16T01:06:09.430Z,976.83
2016-12-16T01:07:09.426Z,976.87
2016-12-16T01:08:09.422Z,976.84
2016-12-16T01:09:09.418Z,976.8
2016-12-16T01:10:09.414Z,976.84
2016-12-16T01:11:09.406Z,976.82
2016-12-16T01:12:09.406Z,976.82
2016-12-16T01:13:09.399Z,976.85
2016-12-16T01:14:09.395Z,976.86
2016-12-16T01:15:09.390Z,976.84
2016-12-16T01:16:09.387Z,976.86
2016-12-16T01:17:09.383Z,976.84
2016-12-16T01:18:09.379Z,976.9
2016-12-16T01:19:09.374Z,976.89
2016-12-16T01:20:09.371Z,976.87
2016-12-16T01:21:09.363Z,976.87
2016-12-16T01:22:09.359Z,976.88
2016-12-16T01:23:09.357Z,976.9
2016-12-16T01:24:09.355Z,976.88
2016-12-16T01:25:09.351Z,976.91
2016-12-16T01:26:09.347Z,976.91
2016-12-16T01:27:09.342Z,976.9
2016-12-16T01:28:09.339Z,976.86
2016-12-16T01:29:09.335Z,976.9
2016-12-16T01:30:09.330Z,976.94
2016-12-16T01:31:09.327Z,976.92
2016-12-16T01:32:09.323Z,976.93
2016-12-16T01:33:09.319Z,976.94
2016-12-16T01:34:09.315Z,976.92
2016-12-16T01:35:09.311Z,976.95
2016-12-16T01:36:09.307Z,976.95
2016-12-16T01:37:09.303Z,976.96
2016-12-16T01:38:09.295Z,976.98
2016-12-16T01:39:09.291Z,977.02
2016-12-16T01:40:09.287Z,977.08
2016-12-16T01:41:09.283Z,977.03
2016-12-16T01:42:09.280Z,977.01
2016-12-16T01:43:09.275Z,977.05
2016-12-16T01:44:09.275Z,977.04
2016-12-16T01:45:09.267Z,977.05
2016-12-16T01:46:09.263Z,977.08
2016-12-16T01:47:09.255Z,977.01
2016-12-16T01:48:09.251Z,977
2016-12-16T01:49:09.247Z,977.05
2016-12-16T01:50:09.244Z,977.03
2016-12-16T01:51:09.244Z,977.02
2016-12-16T01:52:09.239Z,976.99
2016-12-16T01:53:09.231Z,977
2016-12-16T01:54:09.227Z,976.98
2016-12-16T01:55:09.219Z,977
2016-12-16T01:56:09.215Z,976.97
2016-12-16T01:57:09.212Z,976.99
2016-12-16T01:58:09.208Z,977
2016-12-16T01:59:09.203Z,976.97
2016-12-16T02:00:09.203Z,977
2016-12-16T02:01:09.195Z,977.02
2016-12-16T02:02:09.192Z,977.05
2016-12-16T02:03:09.191Z,976.98
2016-12-16T02:04:09.188Z,977.01
2016-12-16T02:05:09.183Z,977
2016-12-16T02:06:09.181Z,976.99
2016-12-16T02:07:09.175Z,976.95
2016-12-16T02:08:09.171Z,976.96
2016-12-16T02:09:09.167Z,976.96
2016-12-16T02:10:09.164Z,977.03
2016-12-16T02:11:09.156Z,977.03
2016-12-16T02:12:09.151Z,976.99
2016-12-16T02:13:09.147Z,977.01
2016-12-16T02:14:09.144Z,977.03
2016-12-16T02:15:09.140Z,976.98
2016-12-16T02:16:09.136Z,977
2016-12-16T02:17:09.131Z,976.97
2016-12-16T02:18:09.128Z,977
2016-12-16T02:19:09.123Z,977.01
2016-12-16T02:20:09.120Z,977.04
2016-12-16T02:21:09.116Z,977.05
2016-12-16T02:22:09.112Z,977.07
2016-12-16T02:23:09.108Z,977.11
2016-12-16T02:24:09.104Z,977.09
2016-12-16T02:25:09.100Z,977.07
2016-12-16T02:26:09.096Z,977.09
2016-12-16T02:27:09.092Z,977.06
2016-12-16T02:28:09.088Z,977.09
2016-12-16T02:29:09.081Z,977.06
2016-12-16T02:30:09.076Z,977.08
2016-12-16T02:31:09.073Z,977.09
2016-12-16T02:32:09.068Z,977.08
2016-12-16T02:33:09.065Z,977.09
2016-12-16T02:34:09.060Z,977.09
2016-12-16T02:35:09.057Z,977.06
2016-12-16T02:36:09.053Z,977.06
2016-12-16T02:37:09.048Z,977.08
2016-12-16T02:38:09.045Z,977.07
2016-12-16T02:39:09.041Z,977.09
2016-12-16T02:40:09.037Z,977.08
2016-12-16T02:41:09.033Z,977.12
2016-12-16T02:42:09.028Z,977.09
2016-12-16T02:43:09.025Z,977.12
2016-12-16T02:44:09.017Z,977.1
2016-12-16T02:45:09.013Z,977.08
2016-12-16T02:46:09.009Z,977.09
2016-12-16T02:47:09.005Z,977.08
2016-12-16T02:48:09.002Z,977.11
2016-12-16T02:49:08.997Z,977.11
2016-12-16T02:50:08.993Z,977.07
2016-12-16T02:51:08.989Z,977.07
2016-12-16T02:52:08.985Z,977.07
2016-12-16T02:53:08.981Z,977.11
2016-12-16T02:54:08.977Z,977.06
2016-12-16T02:55:08.965Z,977.11
2016-12-16T02:56:08.961Z,977.08
2016-12-16T02:57:08.957Z,977.12
2016-12-16T02:58:08.957Z,977.09
2016-12-16T02:59:08.949Z,977.08
2016-12-16T03:00:08.946Z,977.08
2016-12-16T03:01:08.942Z,977.1
2016-12-16T03:02:08.937Z,977.1
2016-12-16T03:03:08.933Z,977.06
2016-12-16T03:04:08.929Z,977.04
2016-12-16T03:05:08.926Z,977.05
2016-12-16T03:06:08.922Z,977.03
2016-12-16T03:07:08.918Z,977.06
2016-12-16T03:08:08.918Z,977.04
2016-12-16T03:09:08.910Z,977.09
2016-12-16T03:10:08.906Z,977.04
2016-12-16T03:11:08.902Z,977.05
2016-12-16T03:12:08.898Z,977.08
2016-12-16T03:13:08.893Z,977.06
2016-12-16T03:14:08.890Z,977.08
2016-12-16T03:15:08.886Z,977.06
2016-12-16T03:16:08.881Z,977.07
2016-12-16T03:17:08.878Z,977.06
2016-12-16T03:18:08.874Z,977.06
2016-12-16T03:19:08.866Z,977.08
2016-12-16T03:20:08.858Z,977.07
2016-12-16T03:21:08.854Z,977.1
2016-12-16T03:22:08.850Z,977.04
2016-12-16T03:23:08.846Z,977.08
2016-12-16T03:24:08.846Z,977
2016-12-16T03:25:08.843Z,977.07
2016-12-16T03:26:08.838Z,977.04
2016-12-16T03:27:08.834Z,977.04
2016-12-16T03:28:08.830Z,977.07
2016-12-16T03:29:08.826Z,977.07
2016-12-16T03:30:08.822Z,977.06
2016-12-16T03:31:08.816Z,977.04
2016-12-16T03:32:08.806Z,977.08
2016-12-16T03:33:08.802Z,977.04
2016-12-16T03:34:08.798Z,977.01
2016-12-16T03:35:08.794Z,977.03
2016-12-16T03:36:08.794Z,977.04
2016-12-16T03:37:08.790Z,977.04
2016-12-16T03:38:08.791Z,977.03
2016-12-16T03:39:08.782Z,977.04
2016-12-16T03:40:08.797Z,977.04
2016-12-16T03:41:08.774Z,977.05
2016-12-16T03:42:08.770Z,977.07
2016-12-16T03:43:08.763Z,977.05
2016-12-16T03:44:08.763Z,977.05
2016-12-16T03:45:08.758Z,977.06
2016-12-16T03:46:08.750Z,977.06
2016-12-16T03:47:08.746Z,977.04
2016-12-16T03:48:08.742Z,977.05
2016-12-16T03:49:08.738Z,977.03
2016-12-16T03:50:08.731Z,977.03
2016-12-16T03:51:08.730Z,977.04
2016-12-16T03:52:08.727Z,977.03
2016-12-16T03:53:08.722Z,977.05
2016-12-16T03:54:08.714Z,977.05
2016-12-16T03:55:08.711Z,977.04
2016-12-16T03:56:08.707Z,977.02
2016-12-16T03:57:08.699Z,977
2016-12-16T03:58:08.695Z,977
2016-12-16T03:59:08.695Z,977
2016-12-16T04:00:08.691Z,977
2016-12-16T04:01:08.687Z,977
2016-12-16T04:02:08.682Z,977.03
2016-12-16T04:03:08.679Z,977.04
2016-12-16T04:04:08.667Z,977.06
2016-12-16T04:05:08.667Z,977.09
2016-12-16T04:06:08.663Z,977.06
2016-12-16T04:07:08.658Z,977.06
2016-12-16T04:08:08.655Z,977.08
2016-12-16T04:09:08.651Z,977.06
2016-12-16T04:10:08.643Z,977.1
2016-12-16T04:11:08.639Z,977.1
2016-12-16T04:12:08.639Z,977.12
2016-12-16T04:13:08.635Z,977.1
2016-12-16T04:14:08.628Z,977.11
2016-12-16T04:15:08.623Z,977.13
2016-12-16T04:16:08.615Z,977.15
2016-12-16T04:17:08.611Z,977.14
2016-12-16T04:18:08.611Z,977.17
2016-12-16T04:19:08.607Z,977.16
2016-12-16T04:20:08.603Z,977.2
2016-12-16T04:21:08.599Z,977.21
2016-12-16T04:22:08.588Z,977.17
2016-12-16T04:23:08.584Z,977.15
2016-12-16T04:24:08.583Z,977.19
2016-12-16T04:25:08.579Z,977.17
2016-12-16T04:26:08.575Z,977.21
2016-12-16T04:27:08.571Z,977.18
2016-12-16T04:28:08.564Z,977.21
2016-12-16T04:29:08.559Z,977.25
2016-12-16T04:30:08.559Z,977.22
2016-12-16T04:31:08.551Z,977.26
2016-12-16T04:32:08.544Z,977.29
2016-12-16T04:33:08.540Z,977.28
2016-12-16T04:34:08.540Z,977.28
2016-12-16T04:35:08.536Z,977.27
2016-12-16T04:36:08.531Z,977.29
2016-12-16T04:37:08.524Z,977.29
2016-12-16T04:38:08.520Z,977.3
2016-12-16T04:39:08.516Z,977.3
2016-12-16T04:40:08.516Z,977.35
2016-12-16T04:41:08.507Z,977.33
2016-12-16T04:42:08.500Z,977.32
2016-12-16T04:43:08.496Z,977.33
2016-12-16T04:44:08.496Z,977.36
2016-12-16T04:45:08.492Z,977.35
2016-12-16T04:46:08.488Z,977.36
2016-12-16T04:47:08.480Z,977.36
2016-12-16T04:48:08.476Z,977.34
2016-12-16T04:49:08.472Z,977.34
2016-12-16T04:50:08.468Z,977.37
2016-12-16T04:51:08.460Z,977.34
2016-12-16T04:52:08.456Z,977.31
2016-12-16T04:53:08.457Z,977.3
2016-12-16T04:54:08.452Z,977.31
2016-12-16T04:55:08.440Z,977.33
2016-12-16T04:56:08.436Z,977.34
2016-12-16T04:57:08.436Z,977.34
2016-12-16T04:58:08.432Z,977.34
2016-12-16T04:59:08.428Z,977.32
2016-12-16T05:00:08.425Z,977.34
2016-12-16T05:01:08.420Z,977.41
2016-12-16T05:02:08.416Z,977.37
2016-12-16T05:03:08.413Z,977.38
2016-12-16T05:04:08.401Z,977.42
2016-12-16T05:05:08.397Z,977.39
2016-12-16T05:06:08.393Z,977.41
2016-12-16T05:07:08.392Z,977.41
2016-12-16T05:08:08.389Z,977.43
2016-12-16T05:09:08.384Z,977.44
2016-12-16T05:10:08.376Z,977.4
2016-12-16T05:11:08.377Z,977.42
2016-12-16T05:12:08.382Z,977.46
2016-12-16T05:13:08.365Z,977.5
2016-12-16T05:14:08.357Z,977.44
2016-12-16T05:15:08.358Z,977.49
2016-12-16T05:16:08.353Z,977.47
2016-12-16T05:17:08.349Z,977.46
2016-12-16T05:18:08.341Z,977.5
2016-12-16T05:19:08.337Z,977.52
2016-12-16T05:20:08.337Z,977.58
2016-12-16T05:21:08.329Z,977.57
2016-12-16T05:22:08.322Z,977.54
2016-12-16T05:23:08.321Z,977.56
2016-12-16T05:24:08.317Z,977.56
2016-12-16T05:25:08.314Z,977.51
2016-12-16T05:26:08.305Z,977.56
2016-12-16T05:27:08.302Z,977.58
2016-12-16T05:28:08.302Z,977.57
2016-12-16T05:29:08.294Z,977.56
2016-12-16T05:30:08.286Z,977.62
2016-12-16T05:31:08.286Z,977.58
2016-12-16T05:32:08.284Z,977.56
2016-12-16T05:33:08.277Z,977.62
2016-12-16T05:34:08.270Z,977.59
2016-12-16T05:35:08.270Z,977.56
2016-12-16T05:36:08.266Z,977.6
2016-12-16T05:37:08.258Z,977.57
2016-12-16T05:38:08.253Z,977.57
2016-12-16T05:39:08.250Z,977.59
2016-12-16T05:40:08.246Z,977.58
2016-12-16T05:41:08.242Z,977.59
2016-12-16T05:42:08.234Z,977.55
2016-12-16T05:43:08.234Z,977.52
2016-12-16T05:44:08.230Z,977.54
2016-12-16T05:45:08.218Z,977.53
2016-12-16T05:46:08.218Z,977.51
2016-12-16T05:47:08.214Z,977.51
2016-12-16T05:48:08.210Z,977.52
2016-12-16T05:49:08.206Z,977.57
2016-12-16T05:50:08.199Z,977.58
2016-12-16T05:51:08.198Z,977.55
2016-12-16T05:52:08.190Z,977.59
2016-12-16T05:53:08.186Z,977.6
2016-12-16T05:54:08.183Z,977.59
2016-12-16T05:55:08.178Z,977.6
2016-12-16T05:56:08.174Z,977.6
2016-12-16T05:57:08.169Z,977.62
2016-12-16T05:58:08.167Z,977.65
2016-12-16T05:59:08.159Z,977.64
2016-12-16T06:00:08.154Z,977.63
2016-12-16T06:01:08.151Z,977.65
2016-12-16T06:02:08.147Z,977.62
2016-12-16T06:03:08.143Z,977.66
2016-12-16T06:04:08.135Z,977.68
2016-12-16T06:05:08.131Z,977.7
2016-12-16T06:06:08.127Z,977.68
2016-12-16T06:07:08.123Z,977.6
2016-12-16T06:08:08.119Z,977.64
2016-12-16T06:09:08.115Z,977.66
2016-12-16T06:10:08.111Z,977.68
2016-12-16T06:11:08.107Z,977.7
2016-12-16T06:12:08.103Z,977.71
2016-12-16T06:13:08.099Z,977.68
2016-12-16T06:14:08.095Z,977.7
2016-12-16T06:15:08.087Z,977.73
2016-12-16T06:16:08.080Z,977.7
2016-12-16T06:17:08.076Z,977.68
2016-12-16T06:18:08.075Z,977.73
2016-12-16T06:19:08.071Z,977.71
2016-12-16T06:20:08.068Z,977.71
2016-12-16T06:21:08.060Z,977.76
2016-12-16T06:22:08.055Z,977.76
2016-12-16T06:23:08.051Z,977.75
2016-12-16T06:24:08.048Z,977.79
2016-12-16T06:25:08.040Z,977.8
2016-12-16T06:26:08.041Z,977.83
2016-12-16T06:27:08.042Z,977.84
2016-12-16T06:28:08.032Z,977.81
2016-12-16T06:29:08.027Z,977.84
2016-12-16T06:30:08.016Z,977.83
2016-12-16T06:31:08.040Z,977.85
2016-12-16T06:32:08.012Z,977.83
2016-12-16T06:33:08.008Z,977.87
2016-12-16T06:34:08.000Z,977.88
2016-12-16T06:35:08.001Z,977.88
2016-12-16T06:36:07.996Z,977.91
2016-12-16T06:37:07.990Z,977.91
2016-12-16T06:38:07.980Z,977.92
2016-12-16T06:39:07.981Z,977.9
2016-12-16T06:40:07.977Z,977.97
2016-12-16T06:41:07.969Z,977.98
2016-12-16T06:42:07.969Z,977.97
2016-12-16T06:43:07.964Z,977.97
2016-12-16T06:44:07.957Z,978.03
2016-12-16T06:45:07.949Z,977.99
2016-12-16T06:46:07.949Z,978.05
2016-12-16T06:47:07.945Z,978.03
2016-12-16T06:48:07.937Z,978.04
2016-12-16T06:49:07.937Z,978.04
2016-12-16T06:50:07.933Z,978
2016-12-16T06:51:07.925Z,977.99
2016-12-16T06:52:07.921Z,978.01
2016-12-16T06:53:07.921Z,977.97
2016-12-16T06:54:07.913Z,977.98
2016-12-16T06:55:07.909Z,977.99
2016-12-16T06:56:07.908Z,977.99
2016-12-16T06:57:07.901Z,977.99
2016-12-16T06:58:07.893Z,978.03
2016-12-16T06:59:07.894Z,978.01
2016-12-16T07:00:07.885Z,977.99
2016-12-16T07:01:07.878Z,978
2016-12-16T07:02:07.878Z,978
2016-12-16T07:03:07.873Z,978.04
2016-12-16T07:04:07.866Z,978.02
2016-12-16T07:05:07.866Z,978.03
2016-12-16T07:06:07.861Z,978.02
2016-12-16T07:07:07.850Z,978.07
2016-12-16T07:08:07.849Z,978.09
2016-12-16T07:09:07.846Z,978.13
2016-12-16T07:10:07.841Z,978.15
2016-12-16T07:11:07.838Z,978.18
2016-12-16T07:12:07.834Z,978.21
2016-12-16T07:13:07.830Z,978.21
2016-12-16T07:14:07.818Z,978.2
2016-12-16T07:15:07.818Z,978.22
2016-12-16T07:16:07.814Z,978.23
2016-12-16T07:17:07.806Z,978.23
2016-12-16T07:18:07.806Z,978.23
2016-12-16T07:19:08.004Z,978.2
2016-12-16T07:20:07.799Z,978.23
2016-12-16T07:21:07.786Z,978.22
2016-12-16T07:22:07.786Z,978.18
2016-12-16T07:23:07.782Z,978.21
2016-12-16T07:24:07.931Z,978.21
2016-12-16T07:25:07.774Z,978.23
2016-12-16T07:26:07.770Z,978.24
2016-12-16T07:27:07.763Z,978.22
2016-12-16T07:28:07.762Z,978.26
2016-12-16T07:29:07.755Z,978.25
2016-12-16T07:30:07.751Z,978.26
2016-12-16T07:31:07.743Z,978.28
2016-12-16T07:32:07.743Z,978.28
2016-12-16T07:33:07.738Z,978.3
2016-12-16T07:34:07.735Z,978.29
2016-12-16T07:35:07.727Z,978.31
2016-12-16T07:36:07.723Z,978.31
2016-12-16T07:37:07.719Z,978.34
2016-12-16T07:38:07.713Z,978.34
2016-12-16T07:39:07.713Z,978.37
2016-12-16T07:40:07.707Z,978.35
2016-12-16T07:41:07.703Z,978.41
2016-12-16T07:42:07.695Z,978.38
2016-12-16T07:43:07.691Z,978.35
2016-12-16T07:44:07.688Z,978.37
2016-12-16T07:45:07.683Z,978.34
2016-12-16T07:46:07.675Z,978.35
2016-12-16T07:47:07.675Z,978.35
2016-12-16T07:48:07.671Z,978.36
2016-12-16T07:49:07.667Z,978.38
2016-12-16T07:50:07.659Z,978.39
2016-12-16T07:51:07.655Z,978.42
2016-12-16T07:52:07.652Z,978.43
2016-12-16T07:53:07.647Z,978.41
2016-12-16T07:54:07.640Z,978.46
2016-12-16T07:55:07.639Z,978.48
2016-12-16T07:56:07.636Z,978.47
2016-12-16T07:57:07.632Z,978.45
2016-12-16T07:58:07.620Z,978.48
2016-12-16T07:59:07.615Z,978.48
2016-12-16T08:00:07.611Z,978.51
2016-12-16T08:01:07.611Z,978.55
2016-12-16T08:02:07.607Z,978.5
2016-12-16T08:03:07.599Z,978.52
2016-12-16T08:04:07.596Z,978.52
2016-12-16T08:05:07.596Z,978.53
2016-12-16T08:06:07.587Z,978.55
2016-12-16T08:07:07.579Z,978.55
2016-12-16T08:08:07.576Z,978.55
2016-12-16T08:09:07.576Z,978.52
2016-12-16T08:10:07.571Z,978.56
2016-12-16T08:11:07.568Z,978.56
2016-12-16T08:12:07.565Z,978.54
2016-12-16T08:13:07.556Z,978.56
2016-12-16T08:14:07.552Z,978.51
2016-12-16T08:15:07.557Z,978.51
2016-12-16T08:16:07.544Z,978.53
2016-12-16T08:17:07.539Z,978.53
2016-12-16T08:18:07.535Z,978.55
2016-12-16T08:19:07.528Z,978.56
2016-12-16T08:20:07.524Z,978.54
2016-12-16T08:21:07.524Z,978.59
2016-12-16T08:22:07.523Z,978.54
2016-12-16T08:23:07.516Z,978.59
2016-12-16T08:24:07.512Z,978.58
2016-12-16T08:25:07.508Z,978.57
2016-12-16T08:26:07.500Z,978.59
2016-12-16T08:27:07.496Z,978.57
2016-12-16T08:28:07.493Z,978.55
2016-12-16T08:29:07.488Z,978.58
2016-12-16T08:30:07.484Z,978.57
2016-12-16T08:31:07.476Z,978.59
2016-12-16T08:32:07.476Z,978.59
2016-12-16T08:33:07.472Z,978.62
2016-12-16T08:34:07.468Z,978.63
2016-12-16T08:35:07.464Z,978.63
2016-12-16T08:36:07.460Z,978.63
2016-12-16T08:37:07.452Z,978.68
2016-12-16T08:38:07.448Z,978.68
2016-12-16T08:39:07.496Z,978.7
2016-12-16T08:40:07.436Z,978.67
2016-12-16T08:41:07.436Z,978.69
2016-12-16T08:42:07.432Z,978.69
2016-12-16T08:43:07.428Z,978.71
2016-12-16T08:44:07.425Z,978.73
2016-12-16T08:45:07.420Z,978.73
2016-12-16T08:46:07.416Z,978.7
2016-12-16T08:47:07.409Z,978.76
2016-12-16T08:48:07.404Z,978.69
2016-12-16T08:49:07.401Z,978.74
2016-12-16T08:50:07.397Z,978.75
2016-12-16T08:51:07.389Z,978.74
2016-12-16T08:52:07.385Z,978.76
2016-12-16T08:53:07.381Z,978.77
2016-12-16T08:54:07.377Z,978.77
2016-12-16T08:55:07.377Z,978.82
2016-12-16T08:56:07.369Z,978.81
2016-12-16T08:57:07.365Z,978.82
2016-12-16T08:58:07.361Z,978.85
2016-12-16T08:59:07.361Z,978.87
2016-12-16T09:00:07.353Z,978.91
2016-12-16T09:01:07.349Z,978.88
2016-12-16T09:02:07.345Z,978.91
2016-12-16T09:03:07.349Z,978.94
2016-12-16T09:04:07.337Z,978.96
2016-12-16T09:05:07.333Z,978.97
2016-12-16T09:06:07.329Z,978.94
2016-12-16T09:07:07.325Z,978.95
2016-12-16T09:08:07.321Z,978.96
2016-12-16T09:09:07.317Z,978.95
2016-12-16T09:10:07.314Z,978.99
2016-12-16T09:11:07.310Z,978.97
2016-12-16T09:12:07.302Z,978.99
2016-12-16T09:13:07.297Z,979.02
2016-12-16T09:14:07.298Z,979
2016-12-16T09:15:07.289Z,979.06
2016-12-16T09:16:07.285Z,979.06
2016-12-16T09:17:07.282Z,979.06
2016-12-16T09:18:07.278Z,979.02
2016-12-16T09:19:07.274Z,979.05
2016-12-16T09:20:07.269Z,979.05
2016-12-16T09:21:07.266Z,979.06
2016-12-16T09:22:07.262Z,979.08
2016-12-16T09:23:07.258Z,979.1
2016-12-16T09:24:07.254Z,979.06
2016-12-16T09:25:07.250Z,979.11
2016-12-16T09:26:07.246Z,979.12
2016-12-16T09:27:07.242Z,979.14
2016-12-16T09:28:07.238Z,979.12
2016-12-16T09:29:07.378Z,979.14
2016-12-16T09:30:07.222Z,979.18
2016-12-16T09:31:07.222Z,979.15
2016-12-16T09:32:07.218Z,979.16
2016-12-16T09:33:07.210Z,979.16
2016-12-16T09:34:07.211Z,979.15
2016-12-16T09:35:07.203Z,979.13
2016-12-16T09:36:07.210Z,979.11
2016-12-16T09:37:07.194Z,979.09
2016-12-16T09:38:07.191Z,979.07
2016-12-16T09:39:07.190Z,979.08
2016-12-16T09:40:07.189Z,979.09
2016-12-16T09:41:07.183Z,979.06
2016-12-16T09:42:07.178Z,979.06
2016-12-16T09:43:07.175Z,979.05
2016-12-16T09:44:07.319Z,979
2016-12-16T09:45:07.163Z,979.03
2016-12-16T09:46:07.159Z,979.06
2016-12-16T09:47:07.155Z,979.04
2016-12-16T09:48:07.147Z,979.03
2016-12-16T09:49:07.147Z,979.04
2016-12-16T09:50:07.143Z,979.02
2016-12-16T09:51:07.139Z,978.99
2016-12-16T09:52:07.135Z,978.97
2016-12-16T09:53:07.131Z,979.01
2016-12-16T09:54:07.123Z,979.06
2016-12-16T09:55:07.126Z,979.03
2016-12-16T09:56:07.120Z,979.03
2016-12-16T09:57:07.115Z,979.04
2016-12-16T09:58:07.111Z,979.06
2016-12-16T09:59:07.107Z,979.06
2016-12-16T10:00:07.100Z,979.06
2016-12-16T10:01:07.100Z,979.03
2016-12-16T10:02:07.092Z,979.04
2016-12-16T10:03:07.088Z,979.06
2016-12-16T10:04:07.087Z,979.03
2016-12-16T10:05:07.084Z,979.03
2016-12-16T10:06:07.080Z,979.02
2016-12-16T10:07:07.072Z,979.02
2016-12-16T10:08:07.068Z,979
2016-12-16T10:09:07.064Z,979.03
2016-12-16T10:10:07.063Z,979
2016-12-16T10:11:07.060Z,979.01
2016-12-16T10:12:07.056Z,979.01
2016-12-16T10:13:07.048Z,979.02
2016-12-16T10:14:07.048Z,978.98
2016-12-16T10:15:07.044Z,978.98
2016-12-16T10:16:07.041Z,978.98
2016-12-16T10:17:07.036Z,978.99
2016-12-16T10:18:07.028Z,979.02
2016-12-16T10:19:07.028Z,979.01
2016-12-16T10:20:07.024Z,979.04
2016-12-16T10:21:07.020Z,979.01
2016-12-16T10:22:07.016Z,978.99
2016-12-16T10:23:07.008Z,979
2016-12-16T10:24:07.008Z,979.05
2016-12-16T10:25:07.004Z,979.03
2016-12-16T10:26:07.000Z,978.99
2016-12-16T10:27:06.996Z,978.95
2016-12-16T10:28:06.994Z,978.99
2016-12-16T10:29:06.988Z,978.94
2016-12-16T10:30:06.980Z,978.92
2016-12-16T10:31:06.980Z,978.93
2016-12-16T10:32:06.976Z,978.91
2016-12-16T10:33:06.972Z,978.93
2016-12-16T10:34:06.964Z,978.93
2016-12-16T10:35:06.964Z,978.92
2016-12-16T10:36:06.960Z,978.89
2016-12-16T10:37:06.956Z,978.88
2016-12-16T10:38:06.952Z,978.88
2016-12-16T10:39:06.948Z,978.92
2016-12-16T10:40:06.940Z,978.88
2016-12-16T10:41:06.939Z,978.9
2016-12-16T10:42:06.936Z,978.88
2016-12-16T10:43:06.928Z,978.88
2016-12-16T10:44:06.928Z,978.86
2016-12-16T10:45:06.920Z,978.88
2016-12-16T10:46:06.919Z,978.85
2016-12-16T10:47:06.915Z,978.84
2016-12-16T10:48:06.907Z,978.86
2016-12-16T10:49:06.907Z,978.84
2016-12-16T10:50:06.903Z,978.88
2016-12-16T10:51:06.899Z,978.88
2016-12-16T10:52:06.895Z,978.84
2016-12-16T10:53:06.887Z,978.83
2016-12-16T10:54:06.887Z,978.86
2016-12-16T10:55:07.084Z,978.87
2016-12-16T10:56:06.879Z,978.86
2016-12-16T10:57:06.874Z,978.88
2016-12-16T10:58:06.870Z,978.87
2016-12-16T10:59:06.868Z,978.86
2016-12-16T11:00:06.868Z,978.87
2016-12-16T11:01:06.862Z,978.9
2016-12-16T11:02:06.855Z,978.89
2016-12-16T11:03:06.854Z,978.87
2016-12-16T11:04:06.846Z,978.87
2016-12-16T11:05:06.846Z,978.89
2016-12-16T11:06:06.842Z,978.89
2016-12-16T11:07:06.838Z,978.88
2016-12-16T11:08:06.830Z,978.88
2016-12-16T11:09:06.830Z,978.84
2016-12-16T11:10:06.822Z,978.86
2016-12-16T11:11:06.822Z,978.85
2016-12-16T11:12:06.818Z,978.83
2016-12-16T11:13:06.814Z,978.82
2016-12-16T11:14:06.820Z,978.8
2016-12-16T11:15:06.806Z,978.81
2016-12-16T11:16:06.799Z,978.77
2016-12-16T11:17:06.798Z,978.74
2016-12-16T11:18:06.799Z,978.79
2016-12-16T11:19:06.795Z,978.75
2016-12-16T11:20:06.791Z,978.77
2016-12-16T11:21:06.787Z,978.73
2016-12-16T11:22:06.779Z,978.72
2016-12-16T11:23:06.779Z,978.75
2016-12-16T11:24:06.771Z,978.76
2016-12-16T11:25:06.771Z,978.69
2016-12-16T11:26:06.767Z,978.67
2016-12-16T11:27:06.763Z,978.68
2016-12-16T11:28:06.759Z,978.66
2016-12-16T11:29:06.751Z,978.63
2016-12-16T11:30:06.751Z,978.67
2016-12-16T11:31:06.744Z,978.67
2016-12-16T11:32:06.748Z,978.65
2016-12-16T11:33:06.744Z,978.66
2016-12-16T11:34:06.736Z,978.69
2016-12-16T11:35:06.736Z,978.65
2016-12-16T11:36:06.731Z,978.67
2016-12-16T11:37:06.728Z,978.69
2016-12-16T11:38:06.724Z,978.69
2016-12-16T11:39:06.720Z,978.67
2016-12-16T11:40:06.720Z,978.7
2016-12-16T11:41:06.708Z,978.72
2016-12-16T11:42:06.708Z,978.69
2016-12-16T11:43:06.708Z,978.72
2016-12-16T11:44:06.704Z,978.68
2016-12-16T11:45:06.700Z,978.68
2016-12-16T11:46:06.696Z,978.69
2016-12-16T11:47:06.692Z,978.67
2016-12-16T11:48:06.689Z,978.68
2016-12-16T11:49:06.684Z,978.7
2016-12-16T11:50:06.681Z,978.69
2016-12-16T11:51:06.676Z,978.66
2016-12-16T11:52:06.669Z,978.65
2016-12-16T11:53:06.673Z,978.64
2016-12-16T11:54:06.672Z,978.67
2016-12-16T11:55:06.661Z,978.65
2016-12-16T11:56:06.661Z,978.67
2016-12-16T11:57:06.658Z,978.67
2016-12-16T11:58:06.655Z,978.65
2016-12-16T11:59:06.650Z,978.7
2016-12-16T12:00:06.642Z,978.69
2016-12-16T12:01:06.642Z,978.71
2016-12-16T12:02:06.642Z,978.71
2016-12-16T12:03:06.630Z,978.7
2016-12-16T12:04:06.634Z,978.69
2016-12-16T12:05:06.630Z,978.73
2016-12-16T12:06:06.622Z,978.71
2016-12-16T12:07:06.623Z,978.7
2016-12-16T12:08:06.620Z,978.72
2016-12-16T12:09:06.611Z,978.7
2016-12-16T12:10:06.611Z,978.68
2016-12-16T12:11:06.608Z,978.69
2016-12-16T12:12:06.603Z,978.71
2016-12-16T12:13:06.603Z,978.68
2016-12-16T12:14:06.599Z,978.68
2016-12-16T12:15:06.743Z,978.7
2016-12-16T12:16:06.588Z,978.65
2016-12-16T12:17:06.587Z,978.68
2016-12-16T12:18:06.583Z,978.69
2016-12-16T12:19:06.580Z,978.67
2016-12-16T12:20:06.624Z,978.68
2016-12-16T12:21:06.572Z,978.68
2016-12-16T12:22:06.564Z,978.7
2016-12-16T12:23:06.564Z,978.73
2016-12-16T12:24:06.564Z,978.69
2016-12-16T12:25:06.560Z,978.71
2016-12-16T12:26:06.556Z,978.74
2016-12-16T12:27:06.552Z,978.71
2016-12-16T12:28:06.548Z,978.69
2016-12-16T12:29:06.544Z,978.71
2016-12-16T12:30:06.589Z,978.72
2016-12-16T12:31:06.540Z,978.74
2016-12-16T12:32:06.537Z,978.76